Time;durP1;ratioP1;P1;durP2;ratioP2;P2;SDS_P1;SDS_P2;PMS_P1;PMS_P2;Temp;Humidity;BMP_temperature;BMP_pressure;BME280_temperature;BME280_humidity;BME280_pressure;Samples;Min_cycle;Max_cycle;Signal;HPM_P1;HPM_P2
2022/07/20 05:02:42;;;;;;;;;26.50;24.50;;;;;25.29;59.29;101588.31;2393786;28;46647;-77
2022/07/20 05:03:52;;;;;;;;;23.75;23.75;;;;;25.29;59.23;101607.13;2396002;28;45474;-77
2022/07/20 05:05:04;;;;;;;;;28.75;26.50;;;;;25.30;57.78;101625.00;2390815;28;47109;-77
2022/07/20 05:06:15;;;;;;;;;30.00;26.00;;;;;25.32;57.06;101635.63;2390096;28;45174;-76
2022/07/20 05:07:25;;;;;;;;;29.00;25.75;;;;;25.36;58.12;101629.03;2396320;28;45630;-77
2022/07/20 05:08:36;;;;;;;;;28.75;26.50;;;;;25.38;58.77;101614.47;2395434;28;45207;-76
2022/07/20 05:09:46;;;;;;;;;26.00;23.25;;;;;25.39;59.07;101610.78;2395621;28;46204;-76
2022/07/20 05:10:56;;;;;;;;;29.50;24.50;;;;;25.35;59.20;101603.94;2401750;28;45226;-75
2022/07/20 05:12:07;;;;;;;;;24.00;21.75;;;;;25.28;58.68;101598.25;2396418;28;46100;-75
2022/07/20 05:13:17;;;;;;;;;23.75;23.50;;;;;25.21;57.56;101588.09;2394007;28;45403;-76
2022/07/20 05:14:28;;;;;;;;;25.75;24.50;;;;;25.13;58.85;101597.66;2396058;28;46277;-76
2022/07/20 05:15:38;;;;;;;;;28.50;22.00;;;;;25.09;59.31;101606.13;2396138;28;45325;-75
2022/07/20 05:16:48;;;;;;;;;25.75;23.50;;;;;25.01;59.35;101621.03;2399389;28;45431;-76
2022/07/20 05:17:59;;;;;;;;;27.50;21.75;;;;;24.98;59.96;101631.16;2396503;28;44895;-76
2022/07/20 05:19:11;;;;;;;;;22.50;21.50;;;;;24.90;60.21;101629.94;2398502;28;46355;-76
2022/07/20 05:20:21;;;;;;;;;26.25;23.50;;;;;24.81;60.37;101612.72;2391714;28;45354;-76
2022/07/20 05:21:31;;;;;;;;;21.25;20.00;;;;;24.75;60.06;101591.69;2388860;28;45270;-76
2022/07/20 05:22:42;;;;;;;;;24.00;22.50;;;;;24.69;60.46;101576.09;2396063;28;44664;-76
2022/07/20 05:23:52;;;;;;;;;23.75;22.75;;;;;24.62;60.01;101543.44;2396056;28;45349;-75
2022/07/20 05:25:03;;;;;;;;;27.00;25.75;;;;;24.54;58.98;101545.94;2396408;28;45313;-76
2022/07/20 05:26:13;;;;;;;;;24.25;23.75;;;;;24.45;59.38;101547.50;2396007;28;47387;-75
2022/07/20 05:27:23;;;;;;;;;22.25;20.00;;;;;24.39;59.32;101546.19;2396002;28;44564;-76
2022/07/20 05:28:34;;;;;;;;;26.25;24.75;;;;;24.34;60.35;101557.28;2395374;28;46900;-76
2022/07/20 05:29:44;;;;;;;;;23.75;21.50;;;;;24.30;60.85;101554.97;2395755;28;45186;-76
2022/07/20 05:30:54;;;;;;;;;24.75;24.25;;;;;24.25;61.24;101540.06;2396160;28;45631;-77
2022/07/20 05:32:07;;;;;;;;;25.50;24.00;;;;;24.19;60.70;101532.47;2395732;28;45257;-76
2022/07/20 05:33:18;;;;;;;;;27.75;24.25;;;;;24.13;60.39;101517.69;2394340;28;45513;-77
2022/07/20 05:34:28;;;;;;;;;23.75;20.00;;;;;24.09;60.84;101513.56;2383847;28;45402;-77
2022/07/20 05:35:39;;;;;;;;;21.25;20.75;;;;;24.05;60.89;101526.34;2387989;28;46287;-77
2022/07/20 05:36:49;;;;;;;;;22.50;20.75;;;;;24.04;60.98;101542.59;2397665;28;45291;-77
2022/07/20 05:38:00;;;;;;;;;20.25;18.75;;;;;24.05;61.52;101550.50;2393973;28;45325;-77
2022/07/20 05:39:11;;;;;;;;;22.75;21.00;;;;;24.05;61.77;101539.78;2395022;28;45242;-77
2022/07/20 05:40:21;;;;;;;;;23.00;20.75;;;;;24.02;61.35;101547.22;2398636;28;45429;-76
2022/07/20 05:41:32;;;;;;;;;24.50;22.75;;;;;24.03;61.58;101548.91;2384758;28;44799;-77
2022/07/20 05:42:42;;;;;;;;;22.75;18.00;;;;;24.01;61.71;101543.69;2386839;28;45341;-78
2022/07/20 05:43:53;;;;;;;;;24.50;20.00;;;;;23.96;61.32;101543.19;2394204;28;45412;-77
2022/07/20 05:45:03;;;;;;;;;24.50;21.00;;;;;23.94;61.28;101546.00;2383577;28;47605;-77
2022/07/20 05:46:13;;;;;;;;;16.75;15.00;;;;;23.92;61.10;101544.41;2386905;28;45258;-77
2022/07/20 05:47:24;;;;;;;;;26.00;22.75;;;;;23.91;61.41;101550.72;2397085;28;46193;-77
2022/07/20 05:48:34;;;;;;;;;21.25;19.75;;;;;23.91;61.60;101567.69;2384331;28;45232;-77
2022/07/20 05:49:47;;;;;;;;;24.25;21.00;;;;;23.93;61.61;101564.88;2387203;28;45490;-77
2022/07/20 05:50:57;;;;;;;;;26.75;22.25;;;;;23.96;61.64;101567.34;2394550;28;45217;-77
2022/07/20 05:52:08;;;;;;;;;22.50;20.75;;;;;24.00;61.85;101584.91;2394226;28;46459;-77
2022/07/20 05:53:18;;;;;;;;;25.75;23.75;;;;;24.05;61.00;101589.97;2394604;28;45385;-77
2022/07/20 05:54:28;;;;;;;;;22.00;21.00;;;;;24.10;60.53;101603.03;2394262;28;45281;-77
2022/07/20 05:55:41;;;;;;;;;23.25;22.00;;;;;24.14;60.20;101602.66;2392958;28;45314;-77
2022/07/20 05:56:52;;;;;;;;;26.50;23.00;;;;;24.23;60.16;101603.75;2393618;28;47029;-77
2022/07/20 05:58:03;;;;;;;;;25.75;22.25;;;;;24.30;60.06;101596.09;2390859;28;44833;-77
2022/07/20 05:59:14;;;;;;;;;25.75;24.25;;;;;24.36;60.71;101592.94;2387488;28;45331;-78
2022/07/20 06:00:24;;;;;;;;;24.50;23.25;;;;;24.43;60.36;101592.44;2384381;28;45172;-78
2022/07/20 06:01:35;;;;;;;;;20.75;20.25;;;;;24.48;60.42;101587.56;2386975;28;45204;-78
2022/07/20 06:02:45;;;;;;;;;23.00;21.75;;;;;24.54;59.74;101572.78;2401944;28;45112;-77
2022/07/20 06:03:55;;;;;;;;;21.75;21.50;;;;;24.56;60.46;101565.47;2403782;28;45289;-77
2022/07/20 06:05:07;;;;;;;;;28.00;23.75;;;;;24.56;60.65;101534.09;2403705;28;45254;-78
2022/07/20 06:06:17;;;;;;;;;22.50;22.00;;;;;24.56;60.23;101541.28;2403387;28;45301;-77
2022/07/20 06:07:27;;;;;;;;;23.00;21.00;;;;;24.57;59.76;101556.44;2403634;28;44774;-77
2022/07/20 06:08:38;;;;;;;;;26.00;20.25;;;;;24.58;59.87;101571.56;2401658;28;45302;-78
2022/07/20 06:09:48;;;;;;;;;26.25;22.75;;;;;24.59;60.18;101581.34;2403657;28;44821;-78
2022/07/20 06:10:58;;;;;;;;;23.00;21.50;;;;;24.59;60.28;101576.84;2403402;28;45428;-77
2022/07/20 06:12:09;;;;;;;;;23.50;20.50;;;;;24.60;60.51;101577.66;2402699;28;45471;-77
2022/07/20 06:13:19;;;;;;;;;22.00;20.00;;;;;24.60;59.68;101574.97;2402902;28;45483;-80
2022/07/20 06:14:30;;;;;;;;;22.75;21.25;;;;;24.63;59.42;101576.56;2403212;28;45591;-80
2022/07/20 06:15:40;;;;;;;;;23.00;19.50;;;;;24.66;59.32;101587.06;2401716;28;45542;-80
2022/07/20 06:16:50;;;;;;;;;23.75;21.75;;;;;24.68;59.45;101583.28;2403452;28;44751;-80
2022/07/20 06:18:01;;;;;;;;;24.00;21.50;;;;;24.73;60.00;101597.22;2403463;28;45348;-80
2022/07/20 06:19:11;;;;;;;;;22.00;20.50;;;;;24.75;59.80;101601.59;2402990;28;44767;-80
2022/07/20 06:20:23;;;;;;;;;20.50;19.75;;;;;24.78;59.16;101606.72;2393494;28;46849;-80
2022/07/20 06:21:33;;;;;;;;;20.50;18.25;;;;;24.80;59.23;101626.28;2395374;28;45468;-80
2022/07/20 06:22:45;;;;;;;;;21.00;17.75;;;;;24.87;58.39;101638.25;2392958;28;47481;-80
2022/07/20 06:23:55;;;;;;;;;25.50;23.00;;;;;24.91;57.93;101647.78;2392259;28;45492;-80
2022/07/20 06:25:07;;;;;;;;;23.00;21.25;;;;;24.98;57.80;101644.59;2386548;28;48021;-80
2022/07/20 06:26:17;;;;;;;;;22.00;19.00;;;;;25.04;58.04;101647.66;2385583;28;45162;-80
2022/07/20 06:27:28;;;;;;;;;19.75;14.75;;;;;25.10;57.36;101657.06;2395032;28;45499;-80
2022/07/20 06:28:38;;;;;;;;;21.75;18.75;;;;;25.18;57.04;101675.28;2393323;28;45315;-80
2022/07/20 06:29:48;;;;;;;;;21.00;18.50;;;;;25.24;57.02;101690.03;2396006;28;45293;-80
2022/07/20 06:30:59;;;;;;;;;20.25;20.00;;;;;25.30;56.34;101692.25;2403545;28;45314;-80
2022/07/20 06:32:09;;;;;;;;;21.75;17.25;;;;;25.36;56.91;101705.19;2403057;28;45285;-79
2022/07/20 06:33:19;;;;;;;;;21.00;19.50;;;;;25.40;56.28;101690.53;2393363;28;44664;-80
2022/07/20 06:34:30;;;;;;;;;20.75;20.75;;;;;25.46;56.82;101693.69;2395456;28;45332;-80
2022/07/20 06:35:40;;;;;;;;;20.75;19.50;;;;;25.50;57.41;101681.69;2393333;28;45297;-80
2022/07/20 06:36:51;;;;;;;;;17.50;16.00;;;;;25.51;57.26;101680.69;2395687;28;46645;-78
2022/07/20 06:38:01;;;;;;;;;22.25;20.25;;;;;25.55;57.46;101673.22;2393016;28;45585;-78
2022/07/20 06:39:11;;;;;;;;;24.75;22.00;;;;;25.55;56.78;101690.25;2396099;28;46336;-77
2022/07/20 06:40:22;;;;;;;;;20.25;17.50;;;;;25.58;57.26;101695.34;2403664;28;45329;-77
2022/07/20 06:41:32;;;;;;;;;21.50;19.75;;;;;25.60;56.07;101704.19;2403243;28;45349;-77
2022/07/20 06:42:43;;;;;;;;;21.00;17.25;;;;;25.62;56.35;101710.28;2403576;28;45313;-77
2022/07/20 06:43:53;;;;;;;;;21.75;19.75;;;;;25.62;56.03;101707.59;2403030;28;45405;-77
2022/07/20 06:45:04;;;;;;;;;18.00;16.25;;;;;25.66;55.74;101697.41;2403479;28;45162;-77
2022/07/20 06:46:15;;;;;;;;;18.50;16.50;;;;;25.68;55.65;101697.31;2403285;28;47358;-77
2022/07/20 06:47:25;;;;;;;;;17.75;17.50;;;;;25.69;55.51;101693.59;2402950;28;44630;-77
2022/07/20 06:48:36;;;;;;;;;17.00;16.50;;;;;25.72;55.40;101687.97;2403197;28;45349;-77
2022/07/20 06:49:47;;;;;;;;;16.50;15.75;;;;;25.73;55.22;101681.66;2403513;28;45316;-77
2022/07/20 06:50:57;;;;;;;;;21.75;18.75;;;;;25.77;55.51;101679.53;2403333;28;45477;-77
2022/07/20 06:52:07;;;;;;;;;19.75;18.25;;;;;25.78;55.72;101674.03;2403395;28;45223;-77
2022/07/20 06:53:18;;;;;;;;;17.75;17.50;;;;;25.79;55.80;101673.06;2392198;28;47236;-77
2022/07/20 06:54:28;;;;;;;;;18.50;16.50;;;;;25.81;55.65;101672.91;2395601;28;45353;-77
2022/07/20 06:55:39;;;;;;;;;21.00;14.75;;;;;25.82;55.21;101670.09;2402489;28;47820;-77
2022/07/20 06:56:49;;;;;;;;;24.50;21.50;;;;;25.85;55.88;101671.69;2402867;28;45339;-77
2022/07/20 06:58:00;;;;;;;;;15.00;14.50;;;;;25.88;55.49;101681.34;2403110;28;46227;-77
2022/07/20 06:59:10;;;;;;;;;21.00;18.50;;;;;25.88;55.39;101678.66;2403371;28;45382;-77
2022/07/20 07:00:20;;;;;;;;;21.25;19.75;;;;;25.90;55.93;101684.75;2401984;28;48013;-77
2022/07/20 07:01:31;;;;;;;;;18.75;16.75;;;;;25.89;55.48;101683.91;2392971;28;44742;-78
2022/07/20 07:02:41;;;;;;;;;18.00;17.75;;;;;25.91;55.37;101678.38;2393762;28;45338;-78
2022/07/20 07:03:52;;;;;;;;;26.75;22.00;;;;;25.90;55.55;101672.16;2395343;28;45476;-84
2022/07/20 07:05:03;;;;;;;;;19.00;18.25;;;;;25.88;55.99;101666.03;2393485;28;46137;-83
2022/07/20 07:06:13;;;;;;;;;25.00;22.00;;;;;25.87;55.87;101667.03;2400299;28;45383;-79
2022/07/20 07:07:23;;;;;;;;;21.25;18.00;;;;;25.84;55.53;101646.59;2400925;28;46687;-77
2022/07/20 07:08:34;;;;;;;;;18.75;18.75;;;;;25.82;56.12;101653.94;2400254;28;44794;-77
2022/07/20 07:09:44;;;;;;;;;17.00;16.00;;;;;25.81;54.96;101649.53;2402829;28;46069;-81
2022/07/20 07:10:55;;;;;;;;;24.00;22.75;;;;;25.82;55.89;101645.88;2402791;28;45226;-81
2022/07/20 07:12:06;;;;;;;;;19.75;16.75;;;;;25.82;55.57;101645.88;2403079;28;46542;-81
2022/07/20 07:13:16;;;;;;;;;20.00;18.00;;;;;25.80;55.72;101636.22;2399610;28;45291;-80
2022/07/20 07:14:26;;;;;;;;;22.75;19.75;;;;;25.77;56.37;101650.78;2399756;28;45484;-79
2022/07/20 07:15:37;;;;;;;;;22.25;18.75;;;;;25.77;55.52;101653.47;2402701;28;45219;-79
2022/07/20 07:16:47;;;;;;;;;22.25;19.75;;;;;25.75;55.31;101649.22;2393514;28;46274;-78
2022/07/20 07:17:57;;;;;;;;;20.50;18.25;;;;;25.76;55.28;101657.16;2398190;28;45198;-78
2022/07/20 07:19:08;;;;;;;;;18.00;15.75;;;;;25.77;55.29;101655.31;2401114;28;45392;-76
2022/07/20 07:20:18;;;;;;;;;20.50;19.75;;;;;25.77;55.53;101649.94;2401396;28;45228;-76
2022/07/20 07:21:28;;;;;;;;;25.00;23.75;;;;;25.76;55.93;101645.50;2401737;28;46708;-76
2022/07/20 07:22:39;;;;;;;;;22.50;21.25;;;;;25.73;55.54;101636.72;2402258;28;44652;-76
2022/07/20 07:23:49;;;;;;;;;24.75;22.00;;;;;25.73;55.76;101623.25;2391699;28;47978;-76
2022/07/20 07:25:00;;;;;;;;;20.00;18.50;;;;;25.72;56.40;101609.91;2396008;28;44691;-78
2022/07/20 07:26:10;;;;;;;;;19.00;17.50;;;;;25.68;56.88;101590.47;2402421;28;45436;-76
2022/07/20 07:27:21;;;;;;;;;15.00;14.75;;;;;25.63;56.46;101590.03;2402464;28;44881;-86
2022/07/20 07:28:32;;;;;;;;;23.75;21.75;;;;;25.57;56.76;101618.31;2401484;28;46236;-85
2022/07/20 07:29:42;;;;;;;;;25.00;19.50;;;;;25.56;55.63;101637.28;2402105;28;45392;-84
2022/07/20 07:30:53;;;;;;;;;17.75;15.50;;;;;25.56;56.27;101656.94;2402975;28;45335;-84
2022/07/20 07:32:03;;;;;;;;;21.50;20.00;;;;;25.57;56.45;101666.75;2391454;28;44980;-83
2022/07/20 07:33:14;;;;;;;;;23.50;22.50;;;;;25.57;56.76;101658.66;2394487;28;46157;-85
2022/07/20 07:34:28;;;;;;;;;23.50;21.25;;;;;25.57;56.84;101647.91;2400926;28;45278;-84
2022/07/20 07:35:39;;;;;;;;;21.50;18.75;;;;;25.58;56.80;101654.97;2402333;28;45448;-83
2022/07/20 07:36:49;;;;;;;;;20.75;20.00;;;;;25.59;56.68;101659.38;2401538;28;45390;-84
2022/07/20 07:37:59;;;;;;;;;21.75;20.50;;;;;25.58;56.83;101659.53;2403146;28;46123;-76
2022/07/20 07:39:10;;;;;;;;;19.50;19.50;;;;;25.57;57.03;101661.34;2402722;28;45348;-75
2022/07/20 07:40:20;;;;;;;;;19.50;17.25;;;;;25.55;57.06;101657.09;2402740;28;45361;-75
2022/07/20 07:41:30;;;;;;;;;22.75;17.25;;;;;25.54;57.37;101660.75;2392881;28;45278;-75
2022/07/20 07:42:41;;;;;;;;;20.00;20.00;;;;;25.51;56.82;101656.47;2395062;28;45436;-75
2022/07/20 07:43:51;;;;;;;;;22.25;21.75;;;;;25.51;57.77;101661.84;2398573;28;45222;-75
2022/07/20 07:45:06;;;;;;;;;23.50;21.00;;;;;25.48;57.52;101656.75;2402168;28;45645;-75
2022/07/20 07:46:16;;;;;;;;;23.50;20.75;;;;;25.46;57.27;101654.16;2392975;28;45444;-75
2022/07/20 07:47:27;;;;;;;;;19.25;16.75;;;;;25.45;56.83;101660.53;2395408;28;46384;-75
2022/07/20 07:48:37;;;;;;;;;20.25;18.00;;;;;25.45;56.20;101660.53;2400608;28;45546;-75
2022/07/20 07:49:47;;;;;;;;;19.00;18.00;;;;;25.47;55.96;101660.41;2402193;28;48098;-75
2022/07/20 07:50:58;;;;;;;;;18.50;17.25;;;;;25.47;57.06;101655.88;2402670;28;44573;-75
2022/07/20 07:52:08;;;;;;;;;9.75;9.00;;;;;25.49;57.34;101662.00;2399495;28;45488;-76
2022/07/20 07:53:19;;;;;;;;;18.25;17.75;;;;;25.50;57.24;101668.25;2403022;28;44807;-76
2022/07/20 07:54:29;;;;;;;;;18.25;17.00;;;;;25.51;56.65;101669.94;2401780;28;46460;-75
2022/07/20 07:55:40;;;;;;;;;22.25;18.25;;;;;25.53;56.33;101673.38;2392335;28;45367;-75
2022/07/20 07:56:51;;;;;;;;;25.75;22.00;;;;;25.53;56.43;101683.28;2395554;28;46720;-75
2022/07/20 07:58:01;;;;;;;;;22.25;20.75;;;;;25.52;56.50;101690.50;2401204;28;45408;-75
2022/07/20 07:59:11;;;;;;;;;18.50;16.25;;;;;25.51;56.44;101686.94;2402903;28;46529;-75
2022/07/20 08:00:22;;;;;;;;;20.25;19.25;;;;;25.52;56.96;101693.19;2401996;28;44774;-76
2022/07/20 08:01:34;;;;;;;;;19.75;17.25;;;;;25.52;56.58;101698.56;2401542;28;45536;-75
2022/07/20 08:02:44;;;;;;;;;19.00;16.50;;;;;25.54;55.85;101706.50;2390404;28;45207;-75
2022/07/20 08:03:54;;;;;;;;;21.00;18.25;;;;;25.56;55.89;101702.69;2393602;28;46281;-75
2022/07/20 08:05:05;;;;;;;;;18.50;17.75;;;;;25.60;57.13;101708.69;2401832;28;44556;-75
2022/07/20 08:06:15;;;;;;;;;18.50;16.50;;;;;25.62;55.87;101718.34;2400626;28;46355;-75
2022/07/20 08:07:26;;;;;;;;;23.00;23.00;;;;;25.65;56.78;101708.31;2391140;28;45235;-75
2022/07/20 08:08:36;;;;;;;;;18.25;18.25;;;;;25.68;55.57;101708.06;2390997;28;48252;-75
2022/07/20 08:09:47;;;;;;;;;17.75;16.50;;;;;25.70;55.67;101709.66;2388857;28;44880;-75
2022/07/20 08:10:58;;;;;;;;;22.50;18.75;;;;;25.73;56.48;101720.16;2390046;28;46956;-75
2022/07/20 08:12:08;;;;;;;;;18.25;17.75;;;;;25.78;55.12;101719.78;2391491;28;45746;-76
2022/07/20 08:13:19;;;;;;;;;17.75;17.50;;;;;25.82;55.28;101718.56;2394330;28;46517;-76
2022/07/20 08:14:29;;;;;;;;;19.75;16.00;;;;;25.87;55.59;101720.00;2397135;28;45305;-76
2022/07/20 08:15:40;;;;;;;;;19.50;18.00;;;;;25.91;55.31;101708.00;2397381;28;45548;-76
2022/07/20 08:16:50;;;;;;;;;18.50;17.75;;;;;25.94;54.94;101713.13;2396708;28;45747;-75
2022/07/20 08:18:00;;;;;;;;;21.50;20.00;;;;;25.98;55.58;101709.19;2398989;28;46346;-75
2022/07/20 08:19:11;;;;;;;;;17.75;17.50;;;;;26.02;55.30;101718.72;2400211;28;45979;-75
2022/07/20 08:20:22;;;;;;;;;20.75;20.00;;;;;26.03;55.21;101715.03;2388440;28;46950;-75
2022/07/20 08:21:32;;;;;;;;;19.00;18.00;;;;;26.05;54.46;101718.44;2388276;28;45686;-76
2022/07/20 08:22:42;;;;;;;;;21.50;21.25;;;;;26.08;54.78;101717.34;2387255;28;46973;-75
2022/07/20 08:23:53;;;;;;;;;23.50;19.75;;;;;26.10;54.20;101715.38;2390743;28;45298;-75
2022/07/20 08:25:04;;;;;;;;;26.25;23.00;;;;;26.11;54.92;101716.22;2400964;28;46052;-75
2022/07/20 08:26:14;;;;;;;;;23.00;18.25;;;;;26.08;54.45;101711.94;2401993;28;44903;-76
2022/07/20 08:27:24;;;;;;;;;24.75;19.75;;;;;26.09;54.17;101723.59;2400453;28;46954;-75
2022/07/20 08:28:34;;;;;;;;;18.75;16.00;;;;;26.09;54.48;101707.44;2391225;28;45255;-75
2022/07/20 08:29:45;;;;;;;;;19.50;19.00;;;;;26.09;54.75;101702.91;2394706;28;45266;-75
2022/07/20 08:30:56;;;;;;;;;19.50;18.00;;;;;26.11;54.47;101702.75;2400605;28;45277;-75
2022/07/20 08:32:06;;;;;;;;;24.00;22.75;;;;;26.12;54.35;101704.47;2397626;28;46313;-75
2022/07/20 08:33:17;;;;;;;;;24.00;21.25;;;;;26.11;53.79;101714.41;2402312;28;45179;-75
2022/07/20 08:34:27;;;;;;;;;20.75;20.75;;;;;26.12;54.07;101716.13;2400348;28;46334;-75
2022/07/20 08:35:39;;;;;;;;;20.25;19.25;;;;;26.12;54.51;101717.94;2402118;28;44552;-75
2022/07/20 08:36:50;;;;;;;;;18.50;18.50;;;;;26.14;53.67;101711.44;2401021;28;46068;-75
2022/07/20 08:38:00;;;;;;;;;26.25;22.25;;;;;26.14;54.26;101715.97;2389826;28;45481;-75
2022/07/20 08:39:10;;;;;;;;;21.75;21.00;;;;;26.13;53.28;101714.25;2394638;28;45356;-75
2022/07/20 08:40:21;;;;;;;;;27.00;23.25;;;;;26.12;54.61;101707.19;2401657;28;45226;-75
2022/07/20 08:41:33;;;;;;;;;21.50;20.25;;;;;26.08;55.34;101706.56;2401027;28;45522;-75
2022/07/20 08:42:44;;;;;;;;;22.00;19.00;;;;;26.04;54.50;101715.91;2400691;28;45221;-74
2022/07/20 08:43:54;;;;;;;;;23.00;22.75;;;;;26.01;54.54;101711.63;2399115;28;46137;-75
2022/07/20 08:45:05;;;;;;;;;23.75;22.00;;;;;26.00;54.61;101719.84;2387897;28;46871;-74
2022/07/20 08:46:17;;;;;;;;;23.25;20.50;;;;;26.01;54.52;101727.78;2394251;28;45290;-74
2022/07/20 08:47:30;;;;;;;;;23.00;20.00;;;;;26.03;54.00;101733.03;2400182;28;46967;-74
2022/07/20 08:48:42;;;;;;;;;22.25;21.00;;;;;26.05;54.36;101728.41;2400831;28;46618;-74
2022/07/20 08:49:53;;;;;;;;;22.50;21.00;;;;;26.07;53.81;101731.81;2401961;28;45340;-74
2022/07/20 08:51:03;;;;;;;;;20.25;18.25;;;;;26.07;54.17;101721.91;2401833;28;46500;-74
2022/07/20 08:52:14;;;;;;;;;21.50;20.75;;;;;26.06;54.18;101728.25;2391869;28;45199;-74
2022/07/20 08:53:24;;;;;;;;;25.00;22.25;;;;;26.05;54.17;101723.00;2393815;28;45482;-75
2022/07/20 08:54:36;;;;;;;;;23.00;19.00;;;;;26.06;53.55;101714.78;2400966;28;45334;-75
2022/07/20 08:55:47;;;;;;;;;20.00;20.00;;;;;26.09;54.10;101723.59;2400645;28;46376;-77
2022/07/20 08:56:57;;;;;;;;;21.50;18.75;;;;;26.10;53.30;101719.94;2401756;28;45464;-75
2022/07/20 08:58:10;;;;;;;;;20.50;20.00;;;;;26.12;53.37;101718.81;2390927;28;47191;-75
2022/07/20 08:59:20;;;;;;;;;21.25;21.25;;;;;26.13;54.48;101723.19;2394661;28;45363;-75
2022/07/20 09:00:30;;;;;;;;;22.75;19.00;;;;;26.12;53.75;101720.63;2400495;28;45439;-75
2022/07/20 09:03:13;;;;;;;;;20.25;18.75;;;;;26.14;53.99;101706.06;2467529;27;45320;-77
2022/07/20 09:04:24;;;;;;;;;21.25;20.50;;;;;26.14;54.38;101706.06;2452685;27;45370;-77
2022/07/20 09:05:37;;;;;;;;;18.00;18.00;;;;;26.15;53.86;101706.91;2454756;27;46401;-75
2022/07/20 09:06:49;;;;;;;;;19.50;17.25;;;;;26.16;53.33;101711.31;2458831;27;44700;-75
2022/07/20 09:08:00;;;;;;;;;25.00;20.50;;;;;26.16;54.42;101717.56;2458533;27;45559;-75
2022/07/20 09:09:10;;;;;;;;;23.25;21.00;;;;;26.15;54.30;101718.53;2459373;27;45344;-75
2022/07/20 09:10:26;;;;;;;;;18.25;17.00;;;;;26.12;53.86;101712.56;2457861;27;47205;-75
2022/07/20 09:11:36;;;;;;;;;23.75;20.50;;;;;26.10;53.53;101706.47;2452289;27;45173;-75
2022/07/20 09:13:08;;;;;;;;;23.25;22.00;;;;;26.11;53.64;101705.44;2458083;27;45377;-75
2022/07/20 09:14:47;;;;;;;;;21.75;18.50;;;;;26.07;53.61;101694.97;2459281;27;44619;-75
2022/07/20 09:15:58;;;;;;;;;21.50;18.25;;;;;26.03;53.71;101696.19;2463658;27;46248;-75
2022/07/20 09:17:20;;;;;;;;;21.50;19.00;;;;;26.03;53.36;101692.63;2457642;27;45253;-75
2022/07/20 09:18:33;;;;;;;;;20.00;15.25;;;;;25.99;53.58;101694.75;2454902;27;46948;-75
2022/07/20 09:19:59;;;;;;;;;22.00;19.50;;;;;25.93;54.00;101697.94;2457558;27;45345;-75
2022/07/20 09:21:10;;;;;;;;;20.50;20.00;;;;;25.82;54.52;101690.78;2458952;27;45573;-75
2022/07/20 09:22:50;;;;;;;;;19.75;18.25;;;;;25.75;54.12;101697.66;2457861;27;45359;-75
2022/07/20 09:24:05;;;;;;;;;19.75;17.50;;;;;25.70;54.37;101690.81;2441116;27;46379;-75
2022/07/20 09:25:15;;;;;;;;;8.00;7.00;;;;;25.67;53.91;101692.88;2455719;27;44669;-75
2022/07/20 09:26:27;;;;;;;;;21.75;19.25;;;;;25.66;54.29;101699.25;2459147;27;45207;-74
2022/07/20 09:27:38;;;;;;;;;18.00;18.00;;;;;25.68;54.43;101703.50;2462136;27;45462;-74
2022/07/20 09:28:52;;;;;;;;;21.25;19.00;;;;;25.71;55.40;101705.09;2457503;27;47335;-74
2022/07/20 09:30:05;;;;;;;;;20.00;17.50;;;;;25.67;53.65;101717.09;2467164;27;45309;-75
2022/07/20 09:31:16;;;;;;;;;17.75;17.75;;;;;25.63;55.50;101721.91;2461831;27;46749;-77
2022/07/20 09:32:27;;;;;;;;;20.00;17.25;;;;;25.60;54.74;101720.31;2458864;27;44677;-77
2022/07/20 09:33:37;;;;;;;;;20.25;16.25;;;;;25.54;54.95;101715.44;2458774;27;45502;-78
2022/07/20 09:34:47;;;;;;;;;19.25;17.00;;;;;25.51;54.56;101718.38;2459035;27;45194;-77
2022/07/20 09:36:03;;;;;;;;;24.50;19.25;;;;;25.47;53.94;101715.09;2458929;27;45345;-77
2022/07/20 09:37:17;;;;;;;;;16.50;16.50;;;;;25.42;54.74;101716.44;2459104;27;44665;-77
2022/07/20 09:38:39;;;;;;;;;18.75;15.75;;;;;25.37;54.69;101716.81;2458374;27;45462;-76
2022/07/20 09:40:03;;;;;;;;;21.25;17.75;;;;;25.35;55.14;101716.94;2465352;27;44763;-78
2022/07/20 09:41:31;;;;;;;;;18.75;16.00;;;;;25.37;55.26;101723.06;2462541;27;46380;-77
2022/07/20 09:42:43;;;;;;;;;14.00;14.00;;;;;25.38;55.82;101727.47;2458939;27;45157;-76
2022/07/20 09:43:56;;;;;;;;;20.50;17.25;;;;;25.39;56.55;101722.91;2457749;27;47665;-77
2022/07/20 09:45:28;;;;;;;;;17.50;15.25;;;;;25.39;56.16;101729.16;2456659;27;45254;-78
2022/07/20 09:46:39;;;;;;;;;18.50;17.25;;;;;25.34;56.21;101736.75;2458521;27;46396;-76
2022/07/20 09:48:11;;;;;;;;;16.00;15.25;;;;;25.31;56.66;101742.38;2458193;27;45289;-78
2022/07/20 09:49:29;;;;;;;;;19.75;16.00;;;;;25.31;56.46;101742.38;2458542;27;45351;-78
2022/07/20 09:50:44;;;;;;;;;22.25;18.75;;;;;25.31;56.45;101742.38;2467343;27;45340;-78
2022/07/20 09:51:59;;;;;;;;;18.25;15.75;;;;;25.33;55.91;101744.97;2464863;27;45391;-80
2022/07/20 09:53:10;;;;;;;;;17.75;16.75;;;;;25.34;56.50;101744.81;2459090;27;44687;-78
2022/07/20 09:54:21;;;;;;;;;20.75;20.00;;;;;25.37;55.86;101752.66;2458838;27;45370;-78
2022/07/20 09:55:32;;;;;;;;;20.50;18.25;;;;;25.42;56.38;101754.09;2458835;27;45485;-78
2022/07/20 09:56:46;;;;;;;;;13.75;13.25;;;;;25.44;56.24;101752.13;2457378;27;48450;-78
2022/07/20 09:57:57;;;;;;;;;17.75;17.25;;;;;25.46;55.96;101742.97;2461520;27;45367;-78
2022/07/20 09:59:13;;;;;;;;;12.25;12.00;;;;;25.51;56.02;101750.66;2469229;27;45384;-77
2022/07/20 10:00:24;;;;;;;;;18.00;16.25;;;;;25.54;55.78;101738.78;2457937;27;45487;-79
2022/07/20 10:01:37;;;;;;;;;18.75;18.25;;;;;25.57;56.47;101742.09;2458017;27;45348;-79
2022/07/20 10:02:50;;;;;;;;;14.50;13.50;;;;;25.59;56.01;101753.59;2458497;27;45218;-78
2022/07/20 10:04:05;;;;;;;;;17.50;16.50;;;;;25.60;56.19;101754.44;2458783;27;46280;-79
2022/07/20 10:05:19;;;;;;;;;16.00;15.00;;;;;25.60;56.05;101752.63;2457447;27;45275;-77
2022/07/20 10:06:31;;;;;;;;;21.50;18.25;;;;;25.62;56.79;101749.78;2450824;27;47223;-76
2022/07/20 10:07:43;;;;;;;;;21.25;18.25;;;;;25.62;57.15;101745.28;2444935;27;44685;-76
2022/07/20 10:08:54;;;;;;;;;19.25;17.00;;;;;25.65;56.60;101748.69;2462617;27;45626;-76
2022/07/20 10:10:05;;;;;;;;;19.00;17.25;;;;;25.68;57.07;101745.75;2465975;27;45163;-76
2022/07/20 10:11:18;;;;;;;;;15.50;15.50;;;;;25.67;58.17;101752.09;2457671;27;45251;-76
2022/07/20 10:12:28;;;;;;;;;18.00;17.00;;;;;25.68;57.91;101743.06;2458850;27;45176;-76
2022/07/20 10:13:41;;;;;;;;;18.75;17.00;;;;;25.68;57.52;101741.19;2457450;27;46244;-76
2022/07/20 10:14:53;;;;;;;;;19.50;19.00;;;;;25.69;57.83;101744.75;2451876;28;45360;-75
2022/07/20 10:16:26;;;;;;;;;16.25;15.25;;;;;25.71;57.43;101745.47;2447753;27;46160;-76
2022/07/20 10:17:38;;;;;;;;;16.00;14.50;;;;;25.73;56.73;101746.25;2447695;28;45291;-75
2022/07/20 10:18:49;;;;;;;;;14.50;14.00;;;;;25.75;56.03;101748.81;2449954;28;46252;-77
2022/07/20 10:19:59;;;;;;;;;16.75;13.00;;;;;25.77;55.64;101758.47;2451072;28;44647;-77
2022/07/20 10:21:31;;;;;;;;;18.50;16.50;;;;;25.80;56.33;101760.06;2446194;27;47239;-77
2022/07/20 10:22:41;;;;;;;;;16.50;13.75;;;;;25.81;55.99;101765.31;2457196;27;45634;-77
2022/07/20 10:24:21;;;;;;;;;14.25;14.25;;;;;25.85;55.91;101776.69;2461975;27;46415;-77
2022/07/20 10:25:32;;;;;;;;;16.50;13.75;;;;;25.87;56.21;101773.88;2447213;28;44696;-77
2022/07/20 10:26:43;;;;;;;;;13.00;12.25;;;;;25.87;55.61;101774.72;2450127;28;45463;-78
2022/07/20 10:28:23;;;;;;;;;16.25;13.50;;;;;25.90;55.24;101769.09;2448799;28;44833;-77
2022/07/20 10:29:41;;;;;;;;;13.00;11.75;;;;;25.91;56.02;101770.78;2447853;28;45303;-78
2022/07/20 10:30:56;;;;;;;;;14.25;13.25;;;;;25.93;55.45;101766.13;2446693;28;45584;-77